Impacts METAR Board INFO
IDs:

KBOS - Boston/Logan Intl, MA, US

Updated at: 1409 UTC 15 Dec 2017
Potential Impact None Slight Moderate High
Time15/02Z 15/03Z 15/04Z 15/05Z 15/06Z 15/07Z 15/08Z 15/09Z 15/10Z 15/11Z 15/12Z 15/13Z 15/14Z
VIS10 10 10 10 10 10 10 10 10 10 10 10 10
CIG-- -- -- -- -- -- -- 230 250 250 -- 250 200
CoverCLRCLRCLRFEWFEWSCTFEWBKNBKNBKNSCTBKNBKN
FltCatVFRVFRVFRVFRVFRVFRVFRVFRVFRVFRVFRVFRVFR
WX--------------------------
WDir270280270270270270270220260270270220230
WSpd13 13 13 15 12 9 7 10 6 8 6 8 5
WGst23 -- 19 23 -- -- 16 -- -- -- -- -- --
Raw hourly METARs
KBOS 150154Z 27013G23KT 10SM CLR M06/M17 A2995 RMK AO2 SLP139 T10611172
KBOS 150254Z 28013KT 10SM CLR M07/M16 A2996 RMK AO2 SLP145 T10671161 51028
KBOS 150354Z 27013G19KT 10SM CLR M07/M15 A2999 RMK AO2 SLP154 T10671150
KBOS 150454Z 27015G23KT 10SM FEW250 M07/M15 A3000 RMK AO2 SLP158 T10721150 410111072
KBOS 150554Z 27012KT 10SM FEW250 M07/M14 A3001 RMK AO2 SLP161 T10721144 11044 21072 51016
KBOS 150654Z 27009KT 10SM SCT250 M07/M14 A3002 RMK AO2 SLP165 T10721144
KBOS 150754Z 27007G16KT 10SM FEW250 M07/M14 A3005 RMK AO2 SLP173 T10721144
KBOS 150854Z 22010KT 10SM BKN230 M08/M14 A3006 RMK AO2 SLP177 T10831139 52016
KBOS 150954Z 26006KT 10SM BKN250 M07/M14 A3006 RMK AO2 SLP178 T10721139
KBOS 151054Z 27008KT 10SM BKN250 M07/M14 A3006 RMK AO2 SLP180 T10721139
KBOS 151154Z 27006KT 10SM FEW050 SCT250 M07/M14 A3008 RMK AO2 SLP184 T10721139 11072 21083 53006
KBOS 151254Z 22008KT 10SM FEW050 SCT200 BKN250 M07/M13 A3009 RMK AO2 SLP188 T10721128
KBOS 151354Z 23005KT 10SM BKN200 M07/M13 A3009 RMK AO2 SLP190 T10671128